Time;durP1;ratioP1;P1;durP2;ratioP2;P2;SDS_P1;SDS_P2;PMS_P1;PMS_P2;Temp;Humidity;BMP_temperature;BMP_pressure;BME280_temperature;BME280_humidity;BME280_pressure;Samples;Min_cycle;Max_cycle;Signal;HPM_P1;HPM_P2
2021/10/09 00:00:48;;;;;;;25.80;14.40;;;205.70;2252.80;;;;;;4879132;29;20052;-53
2021/10/09 00:03:13;;;;;;;23.33;14.45;;;205.70;2252.80;;;;;;4879418;29;20066;-54
2021/10/09 00:05:39;;;;;;;20.30;11.10;;;205.60;2252.80;;;;;;4879456;29;20029;-55
2021/10/09 00:08:12;;;;;;;19.20;12.25;;;205.60;2252.80;;;;;;4878998;29;20029;-54
2021/10/09 00:10:38;;;;;;;15.57;10.07;;;205.70;2252.80;;;;;;4862705;29;20445;-54
2021/10/09 00:13:03;;;;;;;23.98;15.45;;;205.70;2252.80;;;;;;4878999;29;20043;-54
2021/10/09 00:15:29;;;;;;;17.25;9.27;;;230.50;2252.80;;;;;;4879160;29;20041;-54
2021/10/09 00:17:55;;;;;;;19.95;11.85;;;230.50;2252.80;;;;;;4878975;29;20033;-54
2021/10/09 00:20:21;;;;;;;19.65;11.45;;;230.50;2252.80;;;;;;4879061;29;20033;-54
2021/10/09 00:22:46;;;;;;;27.17;13.70;;;230.60;2252.80;;;;;;4879062;29;20468;-54
2021/10/09 00:25:12;;;;;;;13.15;8.05;;;230.50;2252.80;;;;;;4879205;29;20036;-53
2021/10/09 00:27:38;;;;;;;19.33;11.45;;;230.40;2252.80;;;;;;4878934;29;20033;-53
2021/10/09 00:30:05;;;;;;;35.05;20.75;;;205.70;2252.80;;;;;;4878740;29;20066;-55
2021/10/09 00:32:31;;;;;;;12.95;9.45;;;205.70;2252.80;;;;;;4878788;29;20624;-54
2021/10/09 00:34:57;;;;;;;33.20;19.58;;;205.70;2252.80;;;;;;4878700;29;20128;-54
2021/10/09 00:37:22;;;;;;;16.85;10.05;;;230.40;2252.80;;;;;;4878940;29;20041;-51
2021/10/09 00:39:48;;;;;;;20.50;9.02;;;205.40;2252.80;;;;;;4878583;29;20073;-54
2021/10/09 00:42:14;;;;;;;27.73;13.27;;;230.40;2252.80;;;;;;4878044;29;20036;-54
2021/10/09 00:44:40;;;;;;;25.42;15.13;;;205.70;2252.80;;;;;;4878719;29;20044;-52
2021/10/09 00:47:06;;;;;;;17.80;11.38;;;205.70;2252.80;;;;;;4878540;29;20029;-54
2021/10/09 00:49:32;;;;;;;22.20;13.02;;;230.40;2252.80;;;;;;4878292;29;20044;-53
2021/10/09 00:52:04;;;;;;;32.65;16.55;;;230.50;2252.80;;;;;;4875117;29;20117;-53
2021/10/09 00:54:32;;;;;;;16.10;11.10;;;230.50;2252.80;;;;;;4868878;29;20061;-54
2021/10/09 00:56:59;;;;;;;13.32;7.90;;;230.50;2252.80;;;;;;4867549;29;20030;-54
2021/10/09 00:59:28;;;;;;;10.18;7.45;;;230.40;2252.80;;;;;;4868957;29;20025;-55
2021/10/09 01:01:57;;;;;;;15.20;9.43;;;230.50;2252.80;;;;;;4869504;29;20034;-53
2021/10/09 01:04:24;;;;;;;9.50;6.45;;;205.70;2252.80;;;;;;4869503;29;20037;-55
2021/10/09 01:06:50;;;;;;;12.88;7.45;;;230.40;2252.80;;;;;;4867334;29;20048;-54
2021/10/09 01:09:16;;;;;;;13.60;7.68;;;230.40;2252.80;;;;;;4872070;29;20496;-54
2021/10/09 01:11:43;;;;;;;11.95;7.10;;;205.70;2252.80;;;;;;4878375;29;20033;-52
2021/10/09 01:14:09;;;;;;;18.08;8.80;;;205.70;2252.80;;;;;;4877918;29;20539;-54
2021/10/09 01:16:35;;;;;;;11.70;7.30;;;230.40;2252.80;;;;;;4877983;29;20464;-53
2021/10/09 01:19:01;;;;;;;8.75;5.70;;;205.70;2252.80;;;;;;4878093;29;20040;-53
2021/10/09 01:21:36;;;;;;;23.92;12.98;;;230.40;2252.80;;;;;;4877996;29;20041;-51
2021/10/09 01:24:02;;;;;;;14.00;10.13;;;230.40;2252.80;;;;;;4878068;29;20176;-52
2021/10/09 01:26:28;;;;;;;14.65;6.30;;;230.40;2252.80;;;;;;4877772;29;20108;-52
2021/10/09 01:28:53;;;;;;;15.63;9.10;;;230.40;2252.80;;;;;;4877857;29;20688;-54
2021/10/09 01:31:19;;;;;;;12.43;8.70;;;230.50;2252.80;;;;;;4877711;29;20509;-52
2021/10/09 01:33:46;;;;;;;11.40;6.30;;;230.50;2252.80;;;;;;4877799;29;20032;-54
2021/10/09 01:36:12;;;;;;;12.88;6.60;;;205.70;2252.80;;;;;;4877792;29;20044;-53
2021/10/09 01:38:39;;;;;;;8.23;5.00;;;230.40;2252.80;;;;;;4877579;29;20056;-54
2021/10/09 01:41:06;;;;;;;10.55;5.65;;;205.70;2252.80;;;;;;4877500;29;20026;-54
2021/10/09 01:43:33;;;;;;;8.07;5.38;;;205.70;2252.80;;;;;;4877699;29;20029;-54
2021/10/09 01:45:59;;;;;;;10.02;5.38;;;205.50;2252.80;;;;;;4877395;29;20417;-53
2021/10/09 01:48:33;;;;;;;10.25;6.50;;;205.50;2252.80;;;;;;4877456;29;20081;-54
2021/10/09 01:51:00;;;;;;;11.27;6.57;;;205.50;2252.80;;;;;;4877331;29;20060;-54
2021/10/09 01:53:25;;;;;;;12.02;8.50;;;205.70;2252.80;;;;;;4876432;29;20029;-53
2021/10/09 01:55:52;;;;;;;13.05;7.53;;;205.70;2252.80;;;;;;4877375;29;20445;-53
2021/10/09 01:58:17;;;;;;;14.23;7.47;;;205.70;2252.80;;;;;;4877315;29;20089;-54
2021/10/09 02:00:43;;;;;;;10.50;7.57;;;205.60;2252.80;;;;;;4877342;29;20037;-54
2021/10/09 02:03:09;;;;;;;11.57;7.40;;;205.70;2252.80;;;;;;4876945;29;20064;-53
2021/10/09 02:05:35;;;;;;;11.38;6.85;;;205.70;2252.80;;;;;;4876955;29;20041;-54
2021/10/09 02:08:03;;;;;;;14.68;7.40;;;205.70;2252.80;;;;;;4877091;29;20464;-54
2021/10/09 02:10:30;;;;;;;12.20;6.90;;;205.70;2252.80;;;;;;4876979;29;20409;-54
2021/10/09 02:12:58;;;;;;;14.52;9.05;;;205.70;2252.80;;;;;;4876972;29;20029;-54
2021/10/09 02:26:37;;;;;;;15.45;5.88;;;205.50;2252.80;;;;;;4801410;29;20220;-54
2021/10/09 02:29:02;;;;;;;10.95;6.78;;;205.30;2252.80;;;;;;4801332;29;20046;-54
2021/10/09 02:31:29;;;;;;;12.88;6.05;;;205.30;2252.80;;;;;;4801080;29;20491;-53
2021/10/09 02:33:54;;;;;;;9.38;5.35;;;205.50;2252.80;;;;;;4801143;29;20026;-55
2021/10/09 02:36:20;;;;;;;10.30;5.43;;;205.60;2252.80;;;;;;4801234;29;20051;-55
2021/10/09 02:38:46;;;;;;;9.57;6.38;;;205.70;2252.80;;;;;;4801457;29;20054;-55
2021/10/09 02:41:13;;;;;;;17.95;6.55;;;205.50;2252.80;;;;;;4801256;29;20104;-56
2021/10/09 02:43:39;;;;;;;9.95;5.82;;;205.60;2252.80;;;;;;4801042;29;20474;-54
2021/10/09 02:46:04;;;;;;;14.90;7.18;;;205.60;2252.80;;;;;;4801109;29;20042;-55
2021/10/09 02:48:30;;;;;;;12.50;7.18;;;205.60;2252.80;;;;;;4801184;29;20431;-54
2021/10/09 02:50:56;;;;;;;12.80;7.53;;;205.60;2252.80;;;;;;4800923;29;20034;-54
2021/10/09 02:53:22;;;;;;;7.43;5.03;;;205.70;2252.80;;;;;;4801321;29;20120;-53
2021/10/09 02:55:48;;;;;;;10.63;5.78;;;205.60;2252.80;;;;;;4835427;29;20174;-54
2021/10/09 02:58:14;;;;;;;8.95;5.32;;;205.50;2252.80;;;;;;4858689;29;20033;-53
2021/10/09 03:00:39;;;;;;;10.15;6.35;;;205.50;2252.80;;;;;;4876280;29;20025;-54
2021/10/09 03:03:05;;;;;;;9.95;5.88;;;205.30;2252.80;;;;;;4876241;29;20040;-54
2021/10/09 03:05:31;;;;;;;13.07;7.88;;;205.50;2252.80;;;;;;4876010;29;20395;-54
2021/10/09 03:07:57;;;;;;;13.13;7.43;;;205.50;2252.80;;;;;;4876335;29;20029;-53
2021/10/09 03:10:23;;;;;;;8.25;6.43;;;205.60;2252.80;;;;;;4876367;29;20033;-54
2021/10/09 03:12:49;;;;;;;9.18;5.53;;;205.60;2252.80;;;;;;4876241;29;20025;-53
2021/10/09 03:15:15;;;;;;;9.43;6.07;;;205.50;2252.80;;;;;;4876338;29;20114;-54
2021/10/09 03:17:41;;;;;;;8.27;5.45;;;205.50;2252.80;;;;;;4876412;29;20495;-52
2021/10/09 03:20:10;;;;;;;9.63;5.93;;;205.40;2252.80;;;;;;4876044;29;20036;-53
2021/10/09 03:22:37;;;;;;;11.38;5.80;;;205.40;2252.80;;;;;;4876017;29;20029;-53
2021/10/09 03:25:03;;;;;;;11.02;5.70;;;205.50;2252.80;;;;;;4876430;29;20085;-52
2021/10/09 03:27:29;;;;;;;10.48;6.72;;;205.50;2252.80;;;;;;4876305;29;20029;-53
2021/10/09 03:29:55;;;;;;;15.00;7.10;;;205.40;2252.80;;;;;;4875877;29;20389;-54
2021/10/09 03:32:21;;;;;;;12.68;7.68;;;205.30;2252.80;;;;;;4876025;29;20056;-53
2021/10/09 03:34:46;;;;;;;13.27;8.10;;;205.40;2252.80;;;;;;4875780;29;20041;-54
2021/10/09 03:37:12;;;;;;;12.48;7.53;;;205.40;2252.80;;;;;;4876142;29;20028;-52
2021/10/09 03:39:41;;;;;;;11.50;8.07;;;205.50;2252.80;;;;;;4875948;29;20036;-53
2021/10/09 03:42:12;;;;;;;11.77;6.20;;;205.40;2252.80;;;;;;4875959;29;20026;-52
2021/10/09 03:44:46;;;;;;;8.73;6.05;;;205.30;2252.80;;;;;;4875819;29;20025;-52
2021/10/09 03:47:19;;;;;;;9.20;6.13;;;205.40;2252.80;;;;;;4876203;29;20025;-53
2021/10/09 03:49:55;;;;;;;13.90;6.15;;;205.30;2252.80;;;;;;4876086;29;20092;-53
2021/10/09 03:52:39;;;;;;;7.85;5.28;;;205.30;2252.80;;;;;;4876262;29;20169;-53
2021/10/09 03:55:07;;;;;;;10.35;6.10;;;205.30;2252.80;;;;;;4875703;29;20049;-53
2021/10/09 03:57:34;;;;;;;11.38;6.47;;;205.30;2252.80;;;;;;4875933;29;20037;-54
2021/10/09 04:00:00;;;;;;;12.85;7.03;;;205.20;2252.80;;;;;;4875851;29;20040;-53
2021/10/09 04:02:26;;;;;;;9.07;6.68;;;205.20;2252.80;;;;;;4875948;29;20033;-54
2021/10/09 04:04:52;;;;;;;8.63;5.80;;;205.30;2252.80;;;;;;4876083;29;20112;-54
2021/10/09 04:07:17;;;;;;;8.40;5.00;;;205.30;2252.80;;;;;;4875828;29;20461;-53
2021/10/09 04:09:43;;;;;;;10.00;7.13;;;205.40;2252.80;;;;;;4876192;29;20070;-54
2021/10/09 04:12:08;;;;;;;12.35;8.15;;;205.30;2252.80;;;;;;4875750;29;20039;-53
2021/10/09 04:14:34;;;;;;;15.68;9.68;;;205.20;2252.80;;;;;;4875630;29;20052;-54
2021/10/09 04:17:00;;;;;;;16.00;9.35;;;205.20;2252.80;;;;;;4877432;29;20498;-54
2021/10/09 04:19:26;;;;;;;11.38;8.05;;;205.30;2252.80;;;;;;4879256;29;20029;-54
2021/10/09 04:21:51;;;;;;;15.25;7.82;;;205.30;2252.80;;;;;;4879163;29;20496;-52
2021/10/09 04:24:19;;;;;;;10.57;7.10;;;205.30;2252.80;;;;;;4878953;29;20361;-54
2021/10/09 04:26:45;;;;;;;14.70;8.50;;;205.30;2252.80;;;;;;4879024;29;20052;-54
2021/10/09 04:29:11;;;;;;;16.63;8.60;;;205.20;2252.80;;;;;;4878831;29;21349;-53
2021/10/09 04:31:36;;;;;;;13.60;8.95;;;205.30;2252.80;;;;;;4878645;29;20085;-54
2021/10/09 04:34:02;;;;;;;13.00;8.15;;;205.20;2252.80;;;;;;4879111;29;20391;-53
2021/10/09 04:36:28;;;;;;;20.90;13.18;;;205.30;2252.80;;;;;;4878724;29;20479;-53
2021/10/09 04:38:53;;;;;;;17.83;12.27;;;205.20;2252.80;;;;;;4878828;29;20480;-53
2021/10/09 04:41:19;;;;;;;17.60;11.93;;;205.30;2252.80;;;;;;4878609;29;20042;-53
2021/10/09 04:43:45;;;;;;;17.35;11.38;;;205.40;2252.80;;;;;;4878545;29;20366;-53
2021/10/09 04:46:11;;;;;;;15.07;8.80;;;205.30;2252.80;;;;;;4878826;29;20033;-54
2021/10/09 04:48:37;;;;;;;18.23;10.98;;;205.40;2252.80;;;;;;4878511;29;20065;-53
2021/10/09 04:51:02;;;;;;;16.35;7.78;;;205.30;2252.80;;;;;;4878559;29;20025;-53
2021/10/09 04:53:29;;;;;;;14.32;6.53;;;205.30;2252.80;;;;;;4878390;29;20112;-53
2021/10/09 04:55:55;;;;;;;11.43;7.25;;;205.30;2252.80;;;;;;4878125;29;20044;-54
2021/10/09 04:58:20;;;;;;;11.35;7.18;;;205.20;2252.80;;;;;;4878437;29;20025;-54
2021/10/09 05:00:48;;;;;;;11.45;7.35;;;205.20;2252.80;;;;;;4878227;29;20494;-54
2021/10/09 05:03:14;;;;;;;92.85;62.17;;;205.20;2252.80;;;;;;4878265;29;20389;-54
2021/10/09 05:05:42;;;;;;;32.13;23.38;;;205.20;2252.80;;;;;;4878204;29;20031;-53
2021/10/09 05:08:08;;;;;;;35.35;26.88;;;205.20;2252.80;;;;;;4878045;29;20028;-53
2021/10/09 05:10:35;;;;;;;23.73;17.05;;;205.20;2252.80;;;;;;4878087;29;20033;-54
2021/10/09 05:13:00;;;;;;;33.08;21.35;;;205.30;2252.80;;;;;;4878135;29;20025;-54
2021/10/09 05:15:26;;;;;;;63.05;32.30;;;205.30;2252.80;;;;;;4877922;29;20041;-53
2021/10/09 05:17:52;;;;;;;65.38;36.28;;;205.40;2252.80;;;;;;4878226;29;20037;-53
2021/10/09 05:20:18;;;;;;;40.63;24.83;;;205.30;2252.80;;;;;;4878027;29;20043;-54
2021/10/09 05:22:45;;;;;;;28.92;17.88;;;205.20;2252.80;;;;;;4878047;29;20069;-53
2021/10/09 05:25:11;;;;;;;20.63;13.93;;;205.30;2252.80;;;;;;4877841;29;20048;-54
2021/10/09 05:27:38;;;;;;;25.88;17.73;;;205.30;2252.80;;;;;;4877566;29;20032;-54
2021/10/09 05:30:08;;;;;;;14.43;9.85;;;205.30;2252.80;;;;;;4877579;29;20036;-54
2021/10/09 05:32:36;;;;;;;24.38;12.52;;;205.20;2252.80;;;;;;4877819;29;20100;-54
2021/10/09 05:35:03;;;;;;;34.67;22.88;;;205.30;2252.80;;;;;;4877801;29;20041;-54
2021/10/09 05:37:31;;;;;;;21.00;12.68;;;205.40;2252.80;;;;;;4877427;29;20029;-54
2021/10/09 05:39:58;;;;;;;23.33;14.50;;;205.30;2252.80;;;;;;4877687;29;20064;-54
2021/10/09 05:42:24;;;;;;;26.05;17.45;;;205.30;2252.80;;;;;;4869218;29;20472;-53
2021/10/09 05:44:51;;;;;;;36.42;21.13;;;205.20;2252.80;;;;;;4867741;29;20039;-56
2021/10/09 05:47:16;;;;;;;30.08;18.70;;;205.20;2252.80;;;;;;4866345;29;20022;-54
2021/10/09 05:49:43;;;;;;;28.10;19.80;;;205.30;2252.80;;;;;;4866511;29;20052;-53
2021/10/09 05:52:19;;;;;;;24.48;17.88;;;205.20;2252.80;;;;;;4867610;29;20392;-54
2021/10/09 05:55:09;;;;;;;24.42;15.63;;;205.40;2252.80;;;;;;4867768;29;20030;-52
2021/10/09 05:57:44;;;;;;;34.05;20.48;;;205.20;2252.80;;;;;;4867529;29;20033;-53
2021/10/09 07:00:17;;;;;;;175.40;118.57;;;230.50;2252.80;;;;;;4839638;29;20041;-55
2021/10/09 07:02:43;;;;;;;27.35;17.67;;;230.40;2252.80;;;;;;4839672;29;20034;-54
2021/10/09 07:05:10;;;;;;;34.25;23.40;;;205.70;2252.80;;;;;;4839322;29;20045;-54
2021/10/09 07:07:55;;;;;;;38.65;27.67;;;205.70;2252.80;;;;;;4839294;29;20082;-54
2021/10/09 07:10:21;;;;;;;28.88;20.30;;;205.70;2252.80;;;;;;4839551;29;20026;-55
2021/10/09 07:12:47;;;;;;;30.67;20.98;;;205.60;2252.80;;;;;;4839219;29;20034;-54
2021/10/09 07:15:18;;;;;;;35.10;23.73;;;205.70;2252.80;;;;;;4839441;29;20038;-54
2021/10/09 07:17:45;;;;;;;40.88;24.65;;;205.60;2252.80;;;;;;4839508;29;20030;-53
2021/10/09 07:20:11;;;;;;;68.35;54.40;;;205.60;2252.80;;;;;;4839553;29;20034;-54
2021/10/09 07:22:37;;;;;;;38.28;25.90;;;205.70;2252.80;;;;;;4839253;29;20041;-54
2021/10/09 07:25:04;;;;;;;24.90;16.65;;;230.40;2252.80;;;;;;4839283;29;20034;-54
2021/10/09 07:27:30;;;;;;;31.67;21.30;;;205.70;2252.80;;;;;;4839436;29;20029;-55
2021/10/09 07:29:56;;;;;;;18.88;14.48;;;205.70;2252.80;;;;;;4838921;29;20076;-54
2021/10/09 07:32:21;;;;;;;27.27;16.33;;;205.60;2252.80;;;;;;4852727;29;20077;-55
2021/10/09 07:34:47;;;;;;;31.17;20.08;;;205.70;2252.80;;;;;;4857496;29;20042;-54
2021/10/09 07:37:13;;;;;;;26.75;18.23;;;205.70;2252.80;;;;;;4857716;29;20053;-54
2021/10/09 07:39:38;;;;;;;31.00;21.08;;;230.50;2252.80;;;;;;4857490;29;20029;-54
2021/10/09 07:42:05;;;;;;;33.50;20.20;;;230.50;2252.80;;;;;;4857453;29;20496;-55
2021/10/09 07:44:30;;;;;;;22.17;16.60;;;230.60;2252.80;;;;;;4857554;29;20036;-54
2021/10/09 07:46:56;;;;;;;43.58;24.23;;;205.70;2252.80;;;;;;4857354;29;20038;-54
2021/10/09 07:49:22;;;;;;;41.83;27.45;;;205.70;2252.80;;;;;;4857612;29;20125;-54
2021/10/09 07:51:48;;;;;;;44.35;25.05;;;230.40;2252.80;;;;;;4843433;29;20041;-55
2021/10/09 07:54:14;;;;;;;31.38;20.98;;;205.70;2252.80;;;;;;4861139;29;20112;-54
2021/10/09 07:56:40;;;;;;;46.72;26.85;;;205.70;2252.80;;;;;;4861134;29;20160;-53
2021/10/09 07:59:06;;;;;;;44.95;29.15;;;230.40;2252.80;;;;;;4860653;29;20473;-53
2021/10/09 08:01:32;;;;;;;44.38;27.63;;;230.40;2252.80;;;;;;4861007;29;20038;-53
2021/10/09 08:03:59;;;;;;;48.17;31.92;;;230.40;2252.80;;;;;;4860645;29;20065;-54
2021/10/09 08:06:25;;;;;;;35.85;22.85;;;230.40;2252.80;;;;;;4860538;29;20058;-53
2021/10/09 08:08:51;;;;;;;61.58;42.22;;;230.50;2252.80;;;;;;4860780;29;20224;-53
2021/10/09 08:11:17;;;;;;;54.92;41.17;;;230.50;2252.80;;;;;;4860786;29;20030;-53
2021/10/09 08:13:43;;;;;;;49.20;39.83;;;230.70;2252.80;;;;;;4860890;29;20029;-53
2021/10/09 08:16:09;;;;;;;32.33;20.55;;;230.60;2252.80;;;;;;4860348;29;20377;-53
2021/10/09 08:18:35;;;;;;;39.60;26.25;;;230.60;2252.80;;;;;;4860480;29;20025;-53
2021/10/09 08:21:03;;;;;;;40.78;27.75;;;230.50;2252.80;;;;;;4860716;29;20037;-53
2021/10/09 08:23:34;;;;;;;28.92;21.23;;;230.60;2252.80;;;;;;4860415;29;20037;-53
2021/10/09 08:36:54;;;;;;;34.40;24.85;;;230.80;2252.80;;;;;;4860278;29;20049;-55
2021/10/09 08:39:20;;;;;;;36.67;25.60;;;230.90;2252.80;;;;;;4844550;29;20400;-54
2021/10/09 08:41:46;;;;;;;28.02;21.60;;;231.00;2252.80;;;;;;4860510;29;20469;-53
2021/10/09 08:44:12;;;;;;;33.38;23.17;;;231.00;2252.80;;;;;;4860620;29;20030;-52
2021/10/09 08:46:38;;;;;;;21.52;16.55;;;230.90;2252.80;;;;;;4860005;29;20515;-52
2021/10/09 08:49:05;;;;;;;30.40;24.23;;;230.80;2252.80;;;;;;4860187;29;20159;-54
2021/10/09 08:51:30;;;;;;;42.20;27.70;;;230.90;2252.80;;;;;;4860048;29;20078;-56
2021/10/09 08:54:07;;;;;;;31.80;22.52;;;231.00;2252.80;;;;;;4859854;29;20418;-52
2021/10/09 08:56:34;;;;;;;29.05;19.45;;;231.10;2252.80;;;;;;4860276;29;20045;-54
2021/10/09 08:59:07;;;;;;;21.55;16.33;;;230.90;2252.80;;;;;;4859900;29;20025;-54
2021/10/09 09:02:08;;;;;;;33.33;24.02;;;230.80;2252.80;;;;;;4859800;29;20541;-54
2021/10/09 09:26:21;;;;;;;36.90;27.52;;;230.80;2252.80;;;;;;4784388;30;20045;-53
2021/10/09 09:40:08;;;;;;;51.03;39.90;;;230.90;2252.80;;;;;;4784025;30;20383;-55
2021/10/09 09:42:51;;;;;;;53.13;42.30;;;230.90;2252.80;;;;;;4784118;30;20486;-53
2021/10/09 09:45:25;;;;;;;53.17;39.88;;;231.00;2252.80;;;;;;4784016;30;20426;-54
2021/10/09 09:47:57;;;;;;;51.15;37.28;;;231.10;2252.80;;;;;;4784158;30;20035;-54
2021/10/09 09:50:24;;;;;;;70.18;45.25;;;231.20;2252.80;;;;;;4784093;30;20046;-54
2021/10/09 09:52:50;;;;;;;63.85;42.25;;;231.20;2252.80;;;;;;4781652;30;20126;-55
2021/10/09 09:55:17;;;;;;;43.63;29.85;;;231.30;2252.80;;;;;;4782087;30;20043;-54
2021/10/09 09:57:44;;;;;;;54.10;34.55;;;231.20;2252.80;;;;;;4782217;30;20047;-53
2021/10/09 10:00:16;;;;;;;65.82;40.03;;;231.20;2252.80;;;;;;4782162;30;20131;-54
2021/10/09 10:02:52;;;;;;;109.40;77.27;;;231.10;2252.80;;;;;;4801550;29;20054;-55
2021/10/09 10:05:19;;;;;;;51.22;37.97;;;231.20;2252.80;;;;;;4856748;29;20253;-57
2021/10/09 10:07:47;;;;;;;37.38;24.50;;;231.20;2252.80;;;;;;4857102;29;20083;-57
2021/10/09 10:10:14;;;;;;;29.05;22.58;;;231.30;2252.80;;;;;;4857439;29;20025;-53
2021/10/09 10:12:41;;;;;;;46.20;33.83;;;256.00;2252.80;;;;;;4857134;29;20033;-54
2021/10/09 10:15:09;;;;;;;42.85;29.88;;;256.20;2252.80;;;;;;4856161;29;20046;-54
2021/10/09 10:17:46;;;;;;;48.85;39.00;;;256.30;2252.80;;;;;;4856773;29;20029;-54
2021/10/09 10:20:14;;;;;;;39.58;30.45;;;256.10;2252.80;;;;;;4856916;29;20108;-54
2021/10/09 10:22:40;;;;;;;34.25;24.23;;;256.30;2252.80;;;;;;4857130;29;20552;-54
2021/10/09 10:25:24;;;;;;;33.33;22.42;;;256.40;2252.80;;;;;;4856746;29;20040;-55
2021/10/09 10:28:10;;;;;;;29.70;18.55;;;256.40;2252.80;;;;;;4856800;29;20047;-54
2021/10/09 10:30:45;;;;;;;39.53;28.38;;;256.10;2252.80;;;;;;4856291;29;20497;-53
2021/10/09 10:33:11;;;;;;;37.30;24.15;;;256.20;2252.80;;;;;;4856654;29;20206;-54
2021/10/09 10:35:36;;;;;;;22.58;16.90;;;256.30;2252.80;;;;;;4856632;29;20046;-54
2021/10/09 10:38:34;;;;;;;143.52;108.90;;;256.20;2252.80;;;;;;4856647;29;20040;-54
2021/10/09 10:41:05;;;;;;;30.02;22.55;;;256.30;2252.80;;;;;;4852403;29;20093;-54
2021/10/09 10:46:03;;;;;;;209.85;128.77;;;256.10;2252.80;;;;;;4856074;29;20029;-54
2021/10/09 10:48:57;;;;;;;99.03;65.75;;;256.20;2252.80;;;;;;4863925;29;20104;-57
2021/10/09 10:54:10;;;;;;;311.17;187.25;;;256.20;2252.80;;;;;;4856357;29;20124;-54
2021/10/09 10:56:57;;;;;;;38.17;26.73;;;256.30;2252.80;;;;;;4856200;29;20042;-54
2021/10/09 11:02:10;;;;;;;81.57;56.70;;;256.20;2252.80;;;;;;4869314;29;20040;-56
2021/10/09 11:04:37;;;;;;;19.90;14.55;;;256.40;2252.80;;;;;;4865099;29;20025;-56
2021/10/09 11:07:03;;;;;;;58.13;40.95;;;256.40;2252.80;;;;;;4863916;29;20037;-56
2021/10/09 11:09:29;;;;;;;249.15;157.38;;;256.30;2252.80;;;;;;4864158;29;20040;-55
2021/10/09 11:11:55;;;;;;;63.28;43.25;;;256.50;2252.80;;;;;;4864590;29;20092;-57
2021/10/09 11:14:23;;;;;;;40.83;26.75;;;256.60;2252.80;;;;;;4863430;29;20025;-61
2021/10/09 11:16:58;;;;;;;89.65;62.70;;;256.40;2252.80;;;;;;4863781;29;20532;-59
2021/10/09 11:19:45;;;;;;;111.05;77.75;;;256.20;2252.80;;;;;;4858561;29;20033;-58
2021/10/09 11:22:13;;;;;;;138.02;102.40;;;231.30;2252.80;;;;;;4866164;29;20784;-55
2021/10/09 11:24:47;;;;;;;44.92;31.70;;;256.10;2252.80;;;;;;4870057;29;20508;-55
2021/10/09 11:27:15;;;;;;;60.17;40.40;;;256.20;2252.80;;;;;;4874183;29;20539;-58
2021/10/09 11:29:42;;;;;;;46.10;33.08;;;231.30;2252.80;;;;;;4869410;29;20450;-55
2021/10/09 11:32:10;;;;;;;41.80;27.90;;;256.00;2252.80;;;;;;4875509;29;20117;-56
2021/10/09 11:34:52;;;;;;;92.93;61.90;;;256.20;2252.80;;;;;;4876024;29;20067;-56
2021/10/09 11:37:19;;;;;;;32.30;22.40;;;256.20;2252.80;;;;;;4876545;29;20025;-56
2021/10/09 11:39:56;;;;;;;34.28;26.05;;;256.30;2252.80;;;;;;4867185;29;20041;-56
2021/10/09 11:42:38;;;;;;;26.27;17.75;;;256.40;2252.80;;;;;;4864614;29;20033;-56
2021/10/09 11:45:27;;;;;;;36.55;27.58;;;256.50;2252.80;;;;;;4876833;29;20035;-56
2021/10/09 11:56:03;;;;;;;77.20;48.05;;;256.40;2252.80;;;;;;4868952;29;20132;-61
2021/10/09 11:58:29;;;;;;;52.08;35.60;;;256.30;2252.80;;;;;;4866681;29;20028;-56
2021/10/09 12:00:55;;;;;;;62.50;43.78;;;256.60;2252.80;;;;;;4861149;29;20036;-58
2021/10/09 12:03:38;;;;;;;43.85;28.10;;;256.80;2252.80;;;;;;4871322;29;20033;-56
2021/10/09 12:06:11;;;;;;;43.58;29.50;;;256.50;2252.80;;;;;;4877956;29;20025;-57
2021/10/09 12:08:51;;;;;;;60.92;38.92;;;256.50;2252.80;;;;;;4877633;29;20037;-57
2021/10/09 12:11:20;;;;;;;50.45;36.65;;;256.70;2252.80;;;;;;4877601;29;20040;-57
2021/10/09 12:13:46;;;;;;;44.75;31.98;;;256.60;2252.80;;;;;;4877603;29;20029;-57
2021/10/09 12:16:12;;;;;;;89.30;59.28;;;256.70;2252.80;;;;;;4877540;29;20044;-58
2021/10/09 12:19:04;;;;;;;40.50;30.30;;;256.60;2252.80;;;;;;4877765;29;20037;-55
2021/10/09 12:21:39;;;;;;;57.10;37.78;;;256.60;2252.80;;;;;;4877519;29;20036;-56
2021/10/09 12:24:17;;;;;;;56.50;37.85;;;256.40;2252.80;;;;;;4877396;29;20037;-57
2021/10/09 12:26:58;;;;;;;72.22;50.33;;;256.30;2252.80;;;;;;4877907;29;20049;-56
2021/10/09 12:29:24;;;;;;;54.70;39.92;;;256.50;2252.80;;;;;;4877123;29;20120;-56
2021/10/09 12:31:50;;;;;;;57.78;41.38;;;256.60;2252.80;;;;;;4877357;29;20113;-56
2021/10/09 12:34:32;;;;;;;57.67;40.08;;;256.70;2252.80;;;;;;4872850;29;20034;-56
2021/10/09 12:37:09;;;;;;;56.00;39.88;;;256.80;2252.80;;;;;;4857822;29;20493;-57
2021/10/09 12:39:35;;;;;;;41.72;28.33;;;256.80;2252.80;;;;;;4858676;29;20477;-57
2021/10/09 12:42:00;;;;;;;43.95;31.58;;;256.50;2252.80;;;;;;4858384;29;20030;-55
2021/10/09 12:44:26;;;;;;;45.38;37.00;;;256.60;2252.80;;;;;;4858476;29;20038;-59
2021/10/09 12:46:52;;;;;;;43.72;29.55;;;256.50;2252.80;;;;;;4858743;29;20034;-56
2021/10/09 12:49:18;;;;;;;51.53;34.47;;;256.60;2252.80;;;;;;4858326;29;20370;-57
2021/10/09 12:51:44;;;;;;;60.25;39.85;;;256.40;2252.80;;;;;;4862166;29;20125;-56
2021/10/09 12:54:10;;;;;;;49.90;35.78;;;256.60;2252.80;;;;;;4877153;29;20033;-56
2021/10/09 12:56:37;;;;;;;32.13;21.50;;;256.60;2252.80;;;;;;4876427;29;20076;-56
2021/10/09 12:59:03;;;;;;;39.63;29.67;;;256.60;2252.80;;;;;;4876867;29;20033;-57
2021/10/09 13:01:30;;;;;;;52.22;33.67;;;256.60;2252.80;;;;;;4876641;29;20041;-58
2021/10/09 13:03:56;;;;;;;63.15;45.50;;;256.40;2252.80;;;;;;4876722;29;20476;-55
2021/10/09 13:06:22;;;;;;;50.55;34.28;;;256.60;2252.80;;;;;;4877086;29;20029;-56
2021/10/09 13:08:48;;;;;;;59.70;36.45;;;256.70;2252.80;;;;;;4876221;29;20436;-58
2021/10/09 13:11:14;;;;;;;53.38;35.05;;;256.70;2252.80;;;;;;4876951;29;20059;-56
2021/10/09 13:13:40;;;;;;;37.65;27.23;;;256.80;2252.80;;;;;;4876668;29;20033;-56
2021/10/09 13:16:07;;;;;;;45.85;30.00;;;256.50;2252.80;;;;;;4876418;29;20040;-57
2021/10/09 13:18:33;;;;;;;49.00;34.03;;;256.50;2252.80;;;;;;4876686;29;20029;-56
2021/10/09 13:20:59;;;;;;;52.47;38.38;;;256.30;2252.80;;;;;;4876236;29;20029;-57
2021/10/09 13:23:31;;;;;;;50.47;39.05;;;256.30;2252.80;;;;;;4876708;29;20383;-57
2021/10/09 13:25:57;;;;;;;67.30;44.90;;;256.20;2252.80;;;;;;4876174;29;20540;-56
2021/10/09 13:28:23;;;;;;;46.75;34.03;;;256.40;2252.80;;;;;;4876465;29;20036;-57
2021/10/09 13:30:51;;;;;;;29.02;20.73;;;256.40;2252.80;;;;;;4876033;29;20455;-58
2021/10/09 13:33:17;;;;;;;49.25;32.72;;;256.50;2252.80;;;;;;4876093;29;20388;-56
2021/10/09 13:35:43;;;;;;;37.28;25.92;;;256.30;2252.80;;;;;;4876041;29;20124;-56
2021/10/09 13:38:11;;;;;;;62.20;40.38;;;256.10;2252.80;;;;;;4876032;29;20384;-56
2021/10/09 13:40:37;;;;;;;59.72;43.58;;;256.30;2252.80;;;;;;4875568;29;20048;-56
2021/10/09 13:43:02;;;;;;;365.80;234.98;;;256.10;2252.80;;;;;;4876220;29;20033;-56
2021/10/09 13:45:28;;;;;;;67.53;45.45;;;256.40;2252.80;;;;;;4875957;29;20029;-56
2021/10/09 13:47:55;;;;;;;56.97;42.83;;;256.40;2252.80;;;;;;4875680;29;20029;-57
2021/10/09 13:50:22;;;;;;;73.80;47.40;;;256.30;2252.80;;;;;;4876088;29;20036;-57
2021/10/09 13:52:48;;;;;;;57.05;36.90;;;256.40;2252.80;;;;;;4875694;29;20025;-56
2021/10/09 13:55:13;;;;;;;62.47;41.38;;;256.10;2252.80;;;;;;4875433;29;20144;-56
2021/10/09 13:57:39;;;;;;;59.92;40.80;;;256.30;2252.80;;;;;;4875861;29;20033;-56
2021/10/09 14:00:06;;;;;;;53.30;38.63;;;256.40;2252.80;;;;;;4875591;29;20387;-56
2021/10/09 14:02:31;;;;;;;107.43;69.25;;;256.40;2252.80;;;;;;4875792;29;20068;-56
2021/10/09 14:04:58;;;;;;;56.22;40.55;;;256.40;2252.80;;;;;;4875595;29;20060;-55
2021/10/09 14:07:24;;;;;;;60.33;43.03;;;256.30;2252.80;;;;;;4876070;29;20107;-55
2021/10/09 14:09:50;;;;;;;41.53;30.45;;;256.40;2252.80;;;;;;4875554;29;20556;-57
2021/10/09 14:12:15;;;;;;;63.40;49.30;;;256.30;2252.80;;;;;;4875737;29;20073;-56
2021/10/09 14:14:41;;;;;;;45.53;33.50;;;256.20;2252.80;;;;;;4875251;29;20033;-58
2021/10/09 14:17:07;;;;;;;138.13;101.47;;;256.10;2252.80;;;;;;4875445;29;20108;-56